createdAt,value
2023-05-19T00:01:00.624Z,9.72
2023-05-19T00:03:29.312Z,9.66
2023-05-19T00:05:59.052Z,9.67
2023-05-19T00:08:34.135Z,9.63
2023-05-19T00:11:02.590Z,9.62
2023-05-19T00:13:31.262Z,9.56
2023-05-19T00:15:59.748Z,9.55
2023-05-19T00:18:29.954Z,9.53
2023-05-19T00:20:58.224Z,9.38
2023-05-19T00:23:26.373Z,9.35
2023-05-19T00:25:54.587Z,9.26
2023-05-19T00:28:23.191Z,9.23
2023-05-19T00:30:51.574Z,9.19
2023-05-19T00:33:19.790Z,9.12
2023-05-19T00:35:47.930Z,9.10
2023-05-19T00:38:16.085Z,9.08
2023-05-19T00:40:44.582Z,9.08
2023-05-19T00:43:13.372Z,9.09
2023-05-19T00:45:41.861Z,9.09
2023-05-19T00:48:10.176Z,9.11
2023-05-19T00:50:38.665Z,9.11
2023-05-19T00:53:07.408Z,9.08
2023-05-19T00:55:37.644Z,9.06
2023-05-19T00:58:06.631Z,9.03
2023-05-19T01:00:35.413Z,8.99
2023-05-19T01:03:11.442Z,8.97
2023-05-19T01:05:44.876Z,8.98
2023-05-19T01:08:13.609Z,9.00
2023-05-19T01:10:42.173Z,9.02
2023-05-19T01:13:11.285Z,9.04
2023-05-19T01:16:10.204Z,9.06
2023-05-19T01:18:45.304Z,9.00
2023-05-19T01:21:44.531Z,9.05
2023-05-19T01:24:33.816Z,8.89
2023-05-19T01:27:29.529Z,8.95
2023-05-19T01:30:25.613Z,8.97
2023-05-19T01:32:57.316Z,8.98
2023-05-19T01:35:26.373Z,8.97
2023-05-19T01:37:57.799Z,8.97
2023-05-19T01:40:28.091Z,8.96
2023-05-19T01:42:59.159Z,8.90
2023-05-19T01:45:32.637Z,8.90
2023-05-19T01:48:03.353Z,8.93
2023-05-19T01:50:33.301Z,8.97
2023-05-19T01:53:02.129Z,9.00
2023-05-19T01:55:30.441Z,9.03
2023-05-19T01:58:19.796Z,9.04
2023-05-19T02:00:56.866Z,8.98
2023-05-19T02:03:51.821Z,8.95
2023-05-19T02:06:36.224Z,8.92
2023-05-19T02:09:15.083Z,8.94
2023-05-19T02:11:56.453Z,8.90
2023-05-19T02:14:35.642Z,8.93
2023-05-19T02:17:05.022Z,8.98
2023-05-19T02:19:39.346Z,8.99
2023-05-19T02:22:07.568Z,8.94
2023-05-19T02:24:37.699Z,9.06
2023-05-19T02:27:06.265Z,9.03
2023-05-19T02:29:35.648Z,9.12
2023-05-19T02:32:04.213Z,9.11
2023-05-19T02:34:32.597Z,9.16
2023-05-19T02:37:01.504Z,9.15
2023-05-19T02:39:35.101Z,9.12
2023-05-19T02:42:03.450Z,9.11
2023-05-19T02:44:31.732Z,9.04
2023-05-19T02:46:59.918Z,9.00
2023-05-19T02:49:30.982Z,8.99
2023-05-19T02:51:59.059Z,8.99
2023-05-19T02:54:27.164Z,8.98
2023-05-19T02:56:55.397Z,8.99
2023-05-19T02:59:25.594Z,9.01
2023-05-19T03:02:00.030Z,9.07
2023-05-19T03:04:29.615Z,9.11
2023-05-19T03:06:57.902Z,9.16
2023-05-19T03:09:26.375Z,9.23
2023-05-19T03:11:54.562Z,9.28
2023-05-19T03:14:24.651Z,9.35
2023-05-19T03:16:53.317Z,9.30
2023-05-19T03:19:22.071Z,9.44
2023-05-19T03:21:50.304Z,9.50
2023-05-19T03:24:18.565Z,9.56
2023-05-19T03:26:46.763Z,9.62
2023-05-19T03:29:15.038Z,9.67
2023-05-19T03:31:43.323Z,9.69
2023-05-19T03:34:11.716Z,9.76
2023-05-19T03:36:40.271Z,9.80
2023-05-19T03:39:12.529Z,9.86
2023-05-19T03:41:40.819Z,9.91
2023-05-19T03:44:08.947Z,9.96
2023-05-19T03:46:37.163Z,10.02
2023-05-19T03:49:21.998Z,10.10
2023-05-19T03:51:59.160Z,10.15
2023-05-19T03:54:39.775Z,10.21
2023-05-19T03:57:07.969Z,10.27
2023-05-19T03:59:37.328Z,10.33
2023-05-19T04:02:05.723Z,10.36
2023-05-19T04:04:34.024Z,10.38
2023-05-19T04:07:02.757Z,10.41
2023-05-19T04:09:32.722Z,10.46
2023-05-19T04:12:04.461Z,10.53
2023-05-19T04:14:32.826Z,10.52
2023-05-19T04:17:01.136Z,10.51
2023-05-19T04:19:29.452Z,10.49
2023-05-19T04:21:57.686Z,10.50
2023-05-19T04:24:26.300Z,10.53
2023-05-19T04:26:54.595Z,10.58
2023-05-19T04:29:24.113Z,10.54
2023-05-19T04:31:52.857Z,10.70
2023-05-19T04:34:21.237Z,10.80
2023-05-19T04:36:51.036Z,10.90
2023-05-19T04:39:21.849Z,10.96
2023-05-19T04:41:50.456Z,10.99
2023-05-19T04:44:19.330Z,11.01
2023-05-19T04:46:50.240Z,11.04
2023-05-19T04:49:19.561Z,11.10
2023-05-19T04:51:51.113Z,11.16
2023-05-19T04:54:23.017Z,11.19
2023-05-19T04:56:52.438Z,11.08
2023-05-19T04:59:22.505Z,11.12
2023-05-19T05:01:50.893Z,11.05
2023-05-19T05:04:20.230Z,11.09
2023-05-19T05:06:48.933Z,11.10
2023-05-19T05:09:18.036Z,11.15
2023-05-19T05:11:46.922Z,11.22
2023-05-19T05:14:15.657Z,11.28
2023-05-19T05:16:44.727Z,11.34
2023-05-19T05:19:15.734Z,11.41
2023-05-19T05:21:44.319Z,11.45
2023-05-19T05:24:12.980Z,11.51
2023-05-19T05:26:43.024Z,11.55
2023-05-19T05:29:11.205Z,11.65
2023-05-19T05:31:39.366Z,11.70
2023-05-19T05:34:07.892Z,11.65
2023-05-19T05:36:36.302Z,11.59
2023-05-19T05:39:05.720Z,11.60
2023-05-19T05:41:35.625Z,11.63
2023-05-19T05:44:08.818Z,11.70
2023-05-19T05:46:37.709Z,11.78
2023-05-19T05:49:06.260Z,11.86
2023-05-19T05:51:35.093Z,11.94
2023-05-19T05:54:06.988Z,11.96
2023-05-19T05:56:41.273Z,11.90
2023-05-19T05:59:10.852Z,11.82
2023-05-19T06:01:39.188Z,11.97
2023-05-19T06:04:09.765Z,12.06
2023-05-19T06:06:39.162Z,12.17
2023-05-19T06:09:07.493Z,12.25
2023-05-19T06:11:36.093Z,12.33
2023-05-19T06:14:04.711Z,12.37
2023-05-19T06:16:59.625Z,12.39
2023-05-19T06:19:27.958Z,12.39
2023-05-19T06:21:56.109Z,12.37
2023-05-19T06:24:24.280Z,12.41
2023-05-19T06:26:52.678Z,12.46
2023-05-19T06:29:21.102Z,12.51
2023-05-19T06:31:49.820Z,12.59
2023-05-19T06:34:19.014Z,12.71
2023-05-19T06:36:47.982Z,12.79
2023-05-19T06:39:16.268Z,12.89
2023-05-19T06:41:44.736Z,13.01
2023-05-19T06:44:24.957Z,13.14
2023-05-19T06:46:53.169Z,13.24
2023-05-19T06:49:21.603Z,13.29
2023-05-19T06:51:50.112Z,13.37
2023-05-19T06:54:18.257Z,13.44
2023-05-19T06:56:46.590Z,13.52
2023-05-19T06:59:16.311Z,13.57
2023-05-19T07:01:46.007Z,13.63
2023-05-19T07:04:14.546Z,13.71
2023-05-19T07:06:42.803Z,13.81
2023-05-19T07:09:11.039Z,13.90
2023-05-19T07:11:40.542Z,13.98
2023-05-19T07:14:09.097Z,14.07
2023-05-19T07:16:37.462Z,14.13
2023-05-19T07:19:07.432Z,14.22
2023-05-19T07:21:35.984Z,14.27
2023-05-19T07:24:04.636Z,14.30
2023-05-19T07:26:32.922Z,14.43
2023-05-19T07:29:01.295Z,14.43
2023-05-19T07:31:29.508Z,14.52
2023-05-19T07:33:57.947Z,14.61
2023-05-19T07:36:26.276Z,14.72
2023-05-19T07:38:54.481Z,14.81
2023-05-19T07:41:23.190Z,14.91
2023-05-19T07:43:51.410Z,15.04
2023-05-19T07:46:19.725Z,15.13
2023-05-19T07:48:48.261Z,15.26
2023-05-19T07:51:16.662Z,15.33
2023-05-19T07:53:44.909Z,15.37
2023-05-19T07:56:13.163Z,15.40
2023-05-19T07:58:42.051Z,15.55
2023-05-19T08:01:10.223Z,15.60
2023-05-19T08:03:38.668Z,15.63
2023-05-19T08:06:06.904Z,15.71
2023-05-19T08:08:35.094Z,15.87
2023-05-19T08:11:04.510Z,15.97
2023-05-19T08:13:33.230Z,16.04
2023-05-19T08:16:01.483Z,16.18
2023-05-19T08:18:29.710Z,16.30
2023-05-19T08:20:57.892Z,16.39
2023-05-19T08:23:26.260Z,16.49
2023-05-19T08:25:54.405Z,16.64
2023-05-19T08:28:22.610Z,16.81
2023-05-19T08:30:52.628Z,16.96
2023-05-19T08:33:21.777Z,16.91
2023-05-19T08:35:50.005Z,17.00
2023-05-19T08:38:18.173Z,17.06
2023-05-19T08:40:48.495Z,17.11
2023-05-19T08:43:16.765Z,17.01
2023-05-19T08:45:48.460Z,17.01
2023-05-19T08:48:19.384Z,17.04
2023-05-19T08:50:56.920Z,16.98
2023-05-19T08:53:34.382Z,16.99
2023-05-19T08:56:11.393Z,17.01
2023-05-19T08:58:41.527Z,17.07
2023-05-19T09:01:19.667Z,17.11
2023-05-19T09:03:50.174Z,17.06
2023-05-19T09:06:18.856Z,17.03
2023-05-19T09:08:47.358Z,17.04
2023-05-19T09:11:16.186Z,17.04
2023-05-19T09:13:44.303Z,17.05
2023-05-19T09:16:13.425Z,16.99
2023-05-19T09:18:55.360Z,16.99
2023-05-19T09:21:33.231Z,17.00
2023-05-19T09:24:06.523Z,17.05
2023-05-19T09:26:38.751Z,17.10
2023-05-19T09:29:17.441Z,17.09
2023-05-19T09:31:50.740Z,17.01
2023-05-19T09:34:19.457Z,16.94
2023-05-19T09:36:52.037Z,16.88
2023-05-19T09:39:22.171Z,16.88
2023-05-19T09:41:55.045Z,16.87
2023-05-19T09:44:29.702Z,16.82
2023-05-19T09:46:58.879Z,16.73
2023-05-19T09:49:29.901Z,16.65
2023-05-19T09:51:59.701Z,16.60
2023-05-19T09:54:28.630Z,16.60
2023-05-19T09:57:05.175Z,16.56
2023-05-19T09:59:34.927Z,16.51
2023-05-19T10:02:03.921Z,16.49
2023-05-19T10:04:32.290Z,16.49
2023-05-19T10:07:05.768Z,16.56
2023-05-19T10:09:36.654Z,16.62
2023-05-19T10:12:06.559Z,16.68
2023-05-19T10:14:34.809Z,16.75
2023-05-19T10:17:03.887Z,16.82
2023-05-19T10:19:32.121Z,16.83
2023-05-19T10:22:00.321Z,16.86
2023-05-19T10:24:28.450Z,16.90
2023-05-19T10:27:16.866Z,16.92
2023-05-19T10:29:50.072Z,16.85
2023-05-19T10:32:26.922Z,16.95
2023-05-19T10:34:57.944Z,16.94
2023-05-19T10:37:27.228Z,16.94
2023-05-19T10:39:58.987Z,16.94
2023-05-19T10:42:38.293Z,16.85
2023-05-19T10:45:22.547Z,16.85
2023-05-19T10:47:52.001Z,16.80
2023-05-19T10:50:21.112Z,16.78
2023-05-19T10:52:56.520Z,16.72
2023-05-19T10:55:47.328Z,16.60
2023-05-19T10:58:15.717Z,16.52
2023-05-19T11:00:43.930Z,16.43
2023-05-19T11:03:16.610Z,16.39
2023-05-19T11:05:50.973Z,16.37
2023-05-19T11:08:33.706Z,16.39
2023-05-19T11:11:23.379Z,16.37
2023-05-19T11:13:53.317Z,16.37
2023-05-19T11:16:28.920Z,16.34
2023-05-19T11:18:59.725Z,16.22
2023-05-19T11:21:49.234Z,16.01
2023-05-19T11:24:50.627Z,15.97
2023-05-19T11:27:23.096Z,15.95
2023-05-19T11:29:52.078Z,15.96
2023-05-19T11:32:22.021Z,15.95
2023-05-19T11:34:50.481Z,15.92
2023-05-19T11:37:18.874Z,15.84
2023-05-19T11:39:47.604Z,15.80
2023-05-19T11:42:16.502Z,15.75
2023-05-19T11:44:48.450Z,15.74
2023-05-19T11:47:17.454Z,15.78
2023-05-19T11:49:48.336Z,15.82
2023-05-19T11:52:16.991Z,15.77
2023-05-19T11:54:48.796Z,15.71
2023-05-19T11:57:17.620Z,15.68
2023-05-19T11:59:48.060Z,15.57
2023-05-19T12:02:19.095Z,15.73
2023-05-19T12:04:48.393Z,15.69
2023-05-19T12:07:18.698Z,15.62
2023-05-19T12:09:47.428Z,15.52
2023-05-19T12:12:20.249Z,15.40
2023-05-19T12:14:51.065Z,15.38
2023-05-19T12:17:20.898Z,15.36
2023-05-19T12:19:50.546Z,15.34
2023-05-19T12:22:19.545Z,15.20
2023-05-19T12:24:48.411Z,15.34
2023-05-19T12:27:21.405Z,15.35
2023-05-19T12:29:58.357Z,15.35
2023-05-19T12:32:29.576Z,15.25
2023-05-19T12:34:58.152Z,15.25
2023-05-19T12:37:27.747Z,15.26
2023-05-19T12:39:56.608Z,15.15
2023-05-19T12:42:31.154Z,15.02
2023-05-19T12:45:02.952Z,14.91
2023-05-19T12:47:34.865Z,14.83
2023-05-19T12:50:04.433Z,14.83
2023-05-19T12:52:35.649Z,14.87
2023-05-19T12:55:07.207Z,14.86
2023-05-19T12:57:36.860Z,14.85
2023-05-19T13:00:14.198Z,14.76
2023-05-19T13:03:06.632Z,14.62
2023-05-19T13:05:39.376Z,14.45
2023-05-19T13:08:09.869Z,14.40
2023-05-19T13:10:40.171Z,14.33
2023-05-19T13:13:09.802Z,14.35
2023-05-19T13:15:40.949Z,14.33
2023-05-19T13:18:10.810Z,14.25
2023-05-19T13:20:40.809Z,14.08
2023-05-19T13:23:12.872Z,13.97
2023-05-19T13:25:42.240Z,13.91
2023-05-19T13:28:11.074Z,13.84
2023-05-19T13:30:41.058Z,13.81
2023-05-19T13:33:09.240Z,13.73
2023-05-19T13:35:37.961Z,13.63
2023-05-19T13:38:08.738Z,13.72
2023-05-19T13:40:37.089Z,13.71
2023-05-19T13:43:06.115Z,13.72
2023-05-19T13:45:34.868Z,13.73
2023-05-19T13:48:03.497Z,13.73
2023-05-19T13:50:31.771Z,13.69
2023-05-19T13:53:00.257Z,13.44
2023-05-19T13:55:28.540Z,13.46
2023-05-19T13:57:56.893Z,13.44
2023-05-19T14:00:25.270Z,13.37
2023-05-19T14:02:53.505Z,13.36
2023-05-19T14:05:21.947Z,13.35
2023-05-19T14:07:50.111Z,13.32
2023-05-19T14:10:18.381Z,13.36
2023-05-19T14:13:12.465Z,13.38
2023-05-19T14:15:37.923Z,13.39
2023-05-19T14:18:07.052Z,13.35
2023-05-19T14:20:36.160Z,13.27
2023-05-19T14:23:04.705Z,13.21
2023-05-19T14:25:32.949Z,13.21
2023-05-19T14:28:01.247Z,13.20
2023-05-19T14:30:29.500Z,13.22
2023-05-19T14:33:05.461Z,13.25
2023-05-19T14:35:33.690Z,13.26
2023-05-19T14:38:02.700Z,13.24
2023-05-19T14:40:31.095Z,13.24
2023-05-19T14:42:59.590Z,13.23
2023-05-19T14:45:27.806Z,13.20
2023-05-19T14:47:56.115Z,13.18
2023-05-19T14:50:24.284Z,13.18
2023-05-19T14:52:52.541Z,13.07
2023-05-19T14:55:20.913Z,13.15
2023-05-19T14:57:49.086Z,13.11
2023-05-19T15:00:18.124Z,13.07
2023-05-19T15:02:46.656Z,13.03
2023-05-19T15:05:15.087Z,12.99
2023-05-19T15:07:43.249Z,12.99
2023-05-19T15:10:11.626Z,13.01
2023-05-19T15:12:39.779Z,12.98
2023-05-19T15:15:08.559Z,13.12
2023-05-19T15:17:36.819Z,13.16
2023-05-19T15:20:05.518Z,13.20
2023-05-19T15:22:34.353Z,13.23
2023-05-19T15:25:02.607Z,13.25
2023-05-19T15:27:30.800Z,13.25
2023-05-19T15:29:58.917Z,13.22
2023-05-19T15:32:27.123Z,13.17
2023-05-19T15:34:55.291Z,13.17
2023-05-19T15:37:23.758Z,13.17
2023-05-19T15:39:51.981Z,13.14
2023-05-19T15:42:20.260Z,13.14
2023-05-19T15:44:48.535Z,13.04
2023-05-19T15:47:16.735Z,13.14
2023-05-19T15:49:44.921Z,13.09
2023-05-19T15:52:13.124Z,13.18
2023-05-19T15:54:41.216Z,13.14
2023-05-19T15:57:09.471Z,13.07
2023-05-19T15:59:37.602Z,13.02
2023-05-19T16:02:06.042Z,13.02
2023-05-19T16:04:34.264Z,13.06
2023-05-19T16:07:02.394Z,13.07
2023-05-19T16:09:30.544Z,13.03
2023-05-19T16:11:58.728Z,12.96
2023-05-19T16:14:31.079Z,12.91
2023-05-19T16:16:59.924Z,12.92
2023-05-19T16:19:28.399Z,12.93
2023-05-19T16:21:56.718Z,12.93
2023-05-19T16:24:25.031Z,12.92
2023-05-19T16:26:54.025Z,12.94
2023-05-19T16:29:22.396Z,12.93
2023-05-19T16:31:50.720Z,12.95
2023-05-19T16:34:18.982Z,12.96
2023-05-19T16:36:47.290Z,12.91
2023-05-19T16:39:15.844Z,12.96
2023-05-19T16:41:44.137Z,12.85
2023-05-19T16:44:14.655Z,12.92
2023-05-19T16:46:43.010Z,12.92
2023-05-19T16:49:11.517Z,12.92
2023-05-19T16:51:39.840Z,12.92
2023-05-19T16:54:08.089Z,12.90
2023-05-19T16:56:36.750Z,12.88
2023-05-19T16:59:04.959Z,12.84
2023-05-19T17:01:33.217Z,12.83
2023-05-19T17:04:01.408Z,12.82
2023-05-19T17:06:30.107Z,12.79
2023-05-19T17:08:58.455Z,12.76
2023-05-19T17:11:27.825Z,12.70
2023-05-19T17:13:56.191Z,12.65
2023-05-19T17:16:24.585Z,12.60
2023-05-19T17:18:52.807Z,12.54
2023-05-19T17:21:21.627Z,12.49
2023-05-19T17:23:49.916Z,12.46
2023-05-19T17:26:18.074Z,12.46
2023-05-19T17:28:46.331Z,12.43
2023-05-19T17:31:15.990Z,12.40
2023-05-19T17:33:44.244Z,12.25
2023-05-19T17:36:12.644Z,12.41
2023-05-19T17:38:42.023Z,12.41
2023-05-19T17:41:10.363Z,12.40
2023-05-19T17:43:39.985Z,12.32
2023-05-19T17:46:08.735Z,12.25
2023-05-19T17:48:36.887Z,12.21
2023-05-19T17:51:07.124Z,12.14
2023-05-19T17:53:35.848Z,12.12
2023-05-19T17:56:07.097Z,12.07
2023-05-19T17:58:35.649Z,12.02
2023-05-19T18:01:04.025Z,11.99
2023-05-19T18:03:32.808Z,11.85
2023-05-19T18:06:01.770Z,11.87
2023-05-19T18:08:32.457Z,11.78
2023-05-19T18:11:01.235Z,11.77
2023-05-19T18:13:29.468Z,11.74
2023-05-19T18:15:59.811Z,11.73
2023-05-19T18:18:28.088Z,11.69
2023-05-19T18:20:56.249Z,11.65
2023-05-19T18:23:24.342Z,11.62
2023-05-19T18:25:53.469Z,11.59
2023-05-19T18:28:21.995Z,11.57
2023-05-19T18:31:00.988Z,11.54
2023-05-19T18:33:31.094Z,11.52
2023-05-19T18:35:59.820Z,11.48
2023-05-19T18:38:28.155Z,11.45
2023-05-19T18:40:56.876Z,11.43
2023-05-19T18:43:25.282Z,11.39
2023-05-19T18:45:53.473Z,11.40
2023-05-19T18:48:22.739Z,11.43
2023-05-19T18:50:51.580Z,11.42
2023-05-19T18:53:21.600Z,11.41
2023-05-19T18:55:49.983Z,11.39
2023-05-19T18:58:18.795Z,11.36
2023-05-19T19:00:47.206Z,11.29
2023-05-19T19:03:16.007Z,11.30
2023-05-19T19:05:45.367Z,11.28
2023-05-19T19:08:13.694Z,11.24
2023-05-19T19:10:42.642Z,11.25
2023-05-19T19:13:10.955Z,11.25
2023-05-19T19:15:39.850Z,11.22
2023-05-19T19:18:08.580Z,11.20
2023-05-19T19:20:36.848Z,11.18
2023-05-19T19:23:06.821Z,11.14
2023-05-19T19:25:35.310Z,11.11
2023-05-19T19:28:03.772Z,11.06
2023-05-19T19:30:32.151Z,11.02
2023-05-19T19:33:00.828Z,11.01
2023-05-19T19:35:29.118Z,11.01
2023-05-19T19:37:58.719Z,10.97
2023-05-19T19:40:26.973Z,10.93
2023-05-19T19:42:55.250Z,10.90
2023-05-19T19:45:23.510Z,10.89
2023-05-19T19:47:51.918Z,10.89
2023-05-19T19:50:20.448Z,10.86
2023-05-19T19:52:48.620Z,10.85
2023-05-19T19:55:16.806Z,10.84
2023-05-19T19:57:47.230Z,10.85
2023-05-19T20:00:15.830Z,10.82
2023-05-19T20:03:02.647Z,10.80
2023-05-19T20:05:32.535Z,10.77
2023-05-19T20:08:00.814Z,10.77
2023-05-19T20:10:29.017Z,10.77
2023-05-19T20:12:59.024Z,10.76
2023-05-19T20:15:27.289Z,10.74
2023-05-19T20:17:55.751Z,10.71
2023-05-19T20:20:24.061Z,10.72
2023-05-19T20:22:52.373Z,10.71
2023-05-19T20:25:21.029Z,10.69
2023-05-19T20:27:49.234Z,10.68
2023-05-19T20:30:17.492Z,10.69
2023-05-19T20:32:46.936Z,10.71
2023-05-19T20:35:16.003Z,10.72
2023-05-19T20:37:44.262Z,10.71
2023-05-19T20:40:12.892Z,10.70
2023-05-19T20:42:41.364Z,10.71
2023-05-19T20:45:09.762Z,10.73
2023-05-19T20:47:38.443Z,10.73
2023-05-19T20:50:06.988Z,10.74
2023-05-19T20:52:35.225Z,10.72
2023-05-19T20:55:03.758Z,10.71
2023-05-19T20:57:32.041Z,10.72
2023-05-19T21:00:00.290Z,10.73
2023-05-19T21:02:28.451Z,10.73
2023-05-19T21:04:56.696Z,10.73
2023-05-19T21:07:25.055Z,10.74
2023-05-19T21:09:54.516Z,10.73
2023-05-19T21:12:25.364Z,10.73
2023-05-19T21:14:53.959Z,10.76
2023-05-19T21:17:22.242Z,10.79
2023-05-19T21:19:52.788Z,10.82
2023-05-19T21:22:20.902Z,10.85
2023-05-19T21:24:49.018Z,10.89
2023-05-19T21:27:17.179Z,10.89
2023-05-19T21:29:45.532Z,10.90
2023-05-19T21:32:13.802Z,10.92
2023-05-19T21:34:41.908Z,10.94
2023-05-19T21:37:10.013Z,10.91
2023-05-19T21:39:38.521Z,10.88
2023-05-19T21:42:06.686Z,10.86
2023-05-19T21:44:34.897Z,10.85
2023-05-19T21:47:03.251Z,10.90
2023-05-19T21:49:31.537Z,10.89
2023-05-19T21:51:59.768Z,10.88
2023-05-19T21:54:28.099Z,10.88
2023-05-19T21:56:56.272Z,10.90
2023-05-19T21:59:24.931Z,10.91
2023-05-19T22:01:53.541Z,10.89
2023-05-19T22:04:22.663Z,10.86
2023-05-19T22:06:51.189Z,10.87
2023-05-19T22:09:20.396Z,10.84
2023-05-19T22:11:48.502Z,10.85
2023-05-19T22:14:16.859Z,10.84
2023-05-19T22:16:45.096Z,10.85
2023-05-19T22:19:13.536Z,10.87
2023-05-19T22:21:41.695Z,10.89
2023-05-19T22:24:09.812Z,10.92
2023-05-19T22:26:42.594Z,10.96
2023-05-19T22:29:15.223Z,10.96
2023-05-19T22:31:43.472Z,10.99
2023-05-19T22:34:12.898Z,11.00
2023-05-19T22:36:44.143Z,10.97
2023-05-19T22:39:15.133Z,10.97
2023-05-19T22:41:43.678Z,10.96
2023-05-19T22:44:16.166Z,10.96
2023-05-19T22:46:44.795Z,10.95
2023-05-19T22:49:13.059Z,10.96
2023-05-19T22:51:41.217Z,10.94
2023-05-19T22:54:10.589Z,10.97
2023-05-19T22:56:38.783Z,11.00
2023-05-19T22:59:07.074Z,11.02
2023-05-19T23:01:35.314Z,11.04
2023-05-19T23:04:04.027Z,11.00
2023-05-19T23:06:32.458Z,11.10
2023-05-19T23:09:02.378Z,11.09
2023-05-19T23:11:30.806Z,11.10
2023-05-19T23:13:59.088Z,11.14
2023-05-19T23:16:27.182Z,11.14
2023-05-19T23:18:55.616Z,11.14
2023-05-19T23:21:23.798Z,11.14
2023-05-19T23:23:52.121Z,11.12
2023-05-19T23:26:21.931Z,11.14
2023-05-19T23:28:50.660Z,11.17
2023-05-19T23:31:18.785Z,11.09
2023-05-19T23:33:47.015Z,11.19
2023-05-19T23:36:16.298Z,11.21
2023-05-19T23:38:44.632Z,11.20
2023-05-19T23:41:12.957Z,11.19
2023-05-19T23:43:41.191Z,11.17
2023-05-19T23:46:09.408Z,11.17
2023-05-19T23:48:37.735Z,11.18
2023-05-19T23:51:06.044Z,11.18
2023-05-19T23:53:34.158Z,11.16
2023-05-19T23:56:02.338Z,11.17
2023-05-19T23:58:30.503Z,11.19
